Time;durP1;ratioP1;P1;durP2;ratioP2;P2;SDS_P1;SDS_P2;PMS_P1;PMS_P2;Temp;Humidity;BMP_temperature;BMP_pressure;BME280_temperature;BME280_humidity;BME280_pressure;Samples;Min_cycle;Max_cycle;Signal;HPM_P1;HPM_P2
2023/12/21 00:25:54;;;;;;;8.30;3.40;;;;;;;3.35;86.70;99201.89;219401;1247;61231;-79
2023/12/21 00:31:21;;;;;;;8.80;3.50;;;;;;;3.36;86.67;99201.23;219236;1244;66319;-79
2023/12/21 00:36:28;;;;;;;7.10;3.40;;;;;;;3.36;86.62;99201.59;219891;1243;60607;-80
2023/12/21 00:41:23;;;;;;;9.70;3.20;;;;;;;3.36;86.38;99194.05;220202;1238;74109;-79
2023/12/21 00:46:23;;;;;;;5.10;3.20;;;;;;;3.35;86.32;99185.96;220665;1240;60466;-79
2023/12/21 00:57:19;;;;;;;8.90;3.80;;;;;;;3.23;86.09;99191.36;220809;1241;66860;-80
2023/12/21 01:02:11;;;;;;;5.80;3.20;;;;;;;3.24;86.13;99195.48;222168;1228;60442;-80
2023/12/21 01:07:02;;;;;;;10.40;3.70;;;;;;;3.26;86.02;99190.73;222542;1230;60534;-79
2023/12/21 01:11:54;;;;;;;6.70;4.50;;;;;;;3.25;85.84;99173.94;222571;1228;60448;-79
2023/12/21 01:16:45;;;;;;;7.60;3.90;;;;;;;3.20;85.96;99162.19;222482;1228;60542;-79
2023/12/21 01:21:38;;;;;;;6.90;4.30;;;;;;;3.13;86.03;99166.80;222511;1228;60463;-79
2023/12/21 01:26:29;;;;;;;8.00;3.30;;;;;;;3.05;85.92;99164.42;222520;1228;71308;-79
2023/12/21 01:31:21;;;;;;;9.00;3.60;;;;;;;3.01;86.05;99164.84;222473;1228;60453;-80
2023/12/21 01:36:12;;;;;;;7.60;3.60;;;;;;;3.00;85.96;99151.99;222468;1228;60576;-79
2023/12/21 01:41:04;;;;;;;11.60;4.50;;;;;;;3.01;86.17;99145.84;222397;1228;72279;-80
2023/12/21 01:45:59;;;;;;;15.80;5.70;;;;;;;3.00;86.20;99144.28;222469;1228;60541;-80
2023/12/21 01:50:51;;;;;;;16.50;6.00;;;;;;;3.00;85.95;99146.33;222528;1228;65416;-79
2023/12/21 01:55:44;;;;;;;13.10;4.80;;;;;;;3.02;86.13;99143.82;222464;1233;60489;-80
2023/12/21 02:00:36;;;;;;;8.50;4.10;;;;;;;3.05;86.19;99137.20;222517;1233;60428;-79
2023/12/21 02:05:28;;;;;;;9.30;4.70;;;;;;;3.06;86.29;99125.59;222401;1228;60500;-79
2023/12/21 02:10:19;;;;;;;8.20;5.70;;;;;;;3.05;86.26;99118.03;222501;1228;60489;-80
2023/12/21 02:15:12;;;;;;;9.90;5.40;;;;;;;2.99;86.39;99114.66;222490;1228;72365;-80
2023/12/21 02:20:07;;;;;;;12.40;4.90;;;;;;;2.97;86.49;99112.73;222534;1228;60509;-80
2023/12/21 02:24:59;;;;;;;12.10;4.20;;;;;;;3.00;86.89;99109.17;222734;1228;65968;-80
2023/12/21 02:29:51;;;;;;;8.30;4.00;;;;;;;3.02;86.68;99102.39;222666;1228;60422;-80
2023/12/21 02:34:42;;;;;;;11.60;4.80;;;;;;;3.04;86.98;99094.05;222726;1228;60429;-80
2023/12/21 02:39:34;;;;;;;11.20;5.10;;;;;;;3.06;86.83;99084.85;222740;1228;60522;-80
2023/12/21 02:44:25;;;;;;;10.90;4.70;;;;;;;3.08;86.81;99072.73;222674;1228;60455;-79
2023/12/21 02:49:16;;;;;;;12.30;5.50;;;;;;;3.09;87.02;99067.27;222506;1233;60595;-80
2023/12/21 02:54:08;;;;;;;11.60;4.20;;;;;;;3.13;86.79;99059.48;222647;1228;74138;-79
2023/12/21 02:58:59;;;;;;;7.00;4.00;;;;;;;3.17;86.91;99052.87;222653;1228;60509;-80
2023/12/21 03:03:51;;;;;;;9.40;3.70;;;;;;;3.20;86.94;99049.86;222675;1228;60461;-80
2023/12/21 03:08:43;;;;;;;6.90;3.60;;;;;;;3.22;87.03;99043.58;222619;1228;72379;-80
2023/12/21 03:13:34;;;;;;;7.40;4.20;;;;;;;3.25;86.79;99031.11;222419;1232;60528;-79
2023/12/21 03:18:26;;;;;;;11.30;4.20;;;;;;;3.27;86.92;99017.27;222715;1228;60553;-79
2023/12/21 03:23:17;;;;;;;9.10;4.60;;;;;;;3.29;86.99;99014.75;222668;1228;60426;-80
2023/12/21 03:28:10;;;;;;;9.30;3.70;;;;;;;3.27;86.31;99003.94;222621;1228;60892;-79
2023/12/21 03:33:01;;;;;;;8.00;3.80;;;;;;;3.27;86.48;98986.62;222692;1228;60454;-80
2023/12/21 03:37:53;;;;;;;7.90;3.20;;;;;;;3.26;86.60;98982.84;222709;1228;60413;-79
2023/12/21 03:42:49;;;;;;;5.00;3.30;;;;;;;3.23;86.54;98970.47;222629;1228;60761;-80
2023/12/21 03:47:41;;;;;;;10.40;4.90;;;;;;;3.22;86.53;98965.83;222698;1228;72621;-80
2023/12/21 03:52:32;;;;;;;11.70;3.80;;;;;;;3.20;86.47;98959.11;222491;1228;60432;-79
2023/12/21 03:57:24;;;;;;;6.70;3.30;;;;;;;3.21;86.63;98950.73;222666;1228;60837;-80
2023/12/21 04:02:15;;;;;;;8.70;4.70;;;;;;;3.22;86.76;98938.59;222657;1228;71305;-80
2023/12/21 04:07:07;;;;;;;8.10;3.60;;;;;;;3.21;86.56;98937.56;222626;1228;60432;-80
2023/12/21 04:11:59;;;;;;;10.10;2.90;;;;;;;3.22;86.87;98929.20;222654;1228;60461;-80
2023/12/21 04:16:50;;;;;;;6.10;3.70;;;;;;;3.23;86.71;98925.61;222682;1228;61208;-80
2023/12/21 04:21:43;;;;;;;6.40;3.10;;;;;;;3.24;86.59;98917.06;222662;1228;60509;-80
2023/12/21 04:26:34;;;;;;;7.70;3.40;;;;;;;3.24;86.81;98916.73;222676;1228;60465;-80
2023/12/21 04:31:26;;;;;;;7.80;3.60;;;;;;;3.25;86.91;98913.99;222703;1228;60441;-80
2023/12/21 04:36:18;;;;;;;7.00;4.00;;;;;;;3.26;86.79;98912.64;222611;1229;60390;-79
2023/12/21 04:41:15;;;;;;;5.30;4.40;;;;;;;3.24;86.79;98898.75;222673;1233;73650;-80
2023/12/21 04:46:09;;;;;;;7.70;3.80;;;;;;;3.23;86.93;98890.16;222630;1228;60423;-79
2023/12/21 04:51:02;;;;;;;5.10;3.70;;;;;;;3.22;87.14;98878.84;222636;1228;60291;-79
2023/12/21 04:55:54;;;;;;;8.10;4.20;;;;;;;3.20;87.31;98872.47;222657;1228;61096;-80
2023/12/21 05:00:50;;;;;;;9.00;4.30;;;;;;;3.18;87.05;98866.11;222595;1228;60453;-80
2023/12/21 05:05:42;;;;;;;7.70;4.80;;;;;;;3.18;87.24;98859.42;222755;1228;73564;-80
2023/12/21 05:10:33;;;;;;;6.40;3.70;;;;;;;3.17;87.34;98852.38;222653;1228;60436;-79
2023/12/21 05:15:25;;;;;;;6.60;3.40;;;;;;;3.16;87.19;98842.45;222498;1228;60406;-80
2023/12/21 05:20:16;;;;;;;4.30;3.60;;;;;;;3.18;87.50;98834.25;222575;1228;72540;-80
2023/12/21 05:25:08;;;;;;;5.50;3.10;;;;;;;3.18;87.48;98820.20;222720;1228;60484;-80
2023/12/21 05:30:01;;;;;;;4.90;3.20;;;;;;;3.18;87.21;98813.53;222434;1228;60520;-79
2023/12/21 05:34:52;;;;;;;5.30;3.70;;;;;;;3.19;87.52;98814.42;222677;1228;60423;-80
2023/12/21 05:39:48;;;;;;;4.40;3.20;;;;;;;3.20;87.68;98801.91;222653;1228;66772;-80
2023/12/21 05:44:39;;;;;;;5.60;3.10;;;;;;;3.21;87.68;98787.23;222654;1228;60428;-79
2023/12/21 05:49:30;;;;;;;8.20;3.20;;;;;;;3.21;88.00;98782.60;222663;1228;60498;-80
2023/12/21 05:54:30;;;;;;;6.80;3.60;;;;;;;3.19;88.23;98775.02;222672;1228;60403;-80
2023/12/21 06:39:34;;;;;;;;;;;;;;;;;;;;;
2023/12/21 08:31:07;;;;;;;3.20;2.90;;;;;;;3.60;91.52;98504.60;218620;1246;65608;-76
2023/12/21 08:49:12;;;;;;;2.90;2.60;;;;;;;3.65;91.54;98469.69;222574;1233;71769;-80
2023/12/21 11:03:38;;;;;;;2.50;2.20;;;;;;;4.04;92.79;98125.44;216947;1254;61824;-76
2023/12/21 11:08:34;;;;;;;2.90;2.50;;;;;;;4.07;93.14;98115.50;217095;1254;61260;-79
2023/12/21 11:14:08;;;;;;;3.90;2.00;;;;;;;4.13;93.07;98096.65;217072;1254;61357;-77
2023/12/21 12:13:24;;;;;;;3.70;2.40;;;;;;;4.78;93.22;97936.48;219493;1232;71147;-76
2023/12/21 12:18:17;;;;;;;4.80;2.50;;;;;;;4.80;93.47;97925.69;222683;1228;61307;-76
2023/12/21 12:23:09;;;;;;;3.10;2.50;;;;;;;4.79;93.70;97908.35;222736;1229;61261;-76
2023/12/21 12:28:01;;;;;;;2.90;2.60;;;;;;;4.79;94.00;97893.42;222814;1232;61235;-75
2023/12/21 12:33:04;;;;;;;;;;;;;;;;;;;;;
2023/12/21 12:38:05;;;;;;;2.30;2.10;;;;;;;4.83;93.85;97867.66;222709;1229;61337;-77
2023/12/21 12:43:00;;;;;;;5.50;3.80;;;;;;;4.87;93.81;97855.96;222383;1234;73018;-76
2023/12/21 12:48:00;;;;;;;3.30;2.60;;;;;;;4.89;93.76;97840.34;222770;1229;61252;-78
2023/12/21 12:58:44;;;;;;;;;;;;;;;4.89;93.77;97810.82;222739;1228;66657;-77
2023/12/21 13:03:50;;;;;;;3.90;3.50;;;;;;;4.89;93.70;97803.10;222777;1229;61199;-77
2023/12/21 13:08:43;;;;;;;3.50;3.00;;;;;;;4.89;93.87;97781.64;222812;1229;61204;-78
2023/12/21 13:13:39;;;;;;;5.80;3.80;;;;;;;4.88;93.86;97778.73;222805;1229;61300;-78
2023/12/21 13:18:54;;;;;;;3.00;2.70;;;;;;;4.86;93.84;97769.30;222787;1233;61318;-77
2023/12/21 13:23:48;;;;;;;5.30;3.10;;;;;;;4.83;93.92;97750.11;222759;1228;67230;-76
2023/12/21 13:28:52;;;;;;;4.60;3.80;;;;;;;4.80;93.75;97736.22;222683;1228;61627;-78
2023/12/21 13:33:51;;;;;;;7.10;3.60;;;;;;;4.78;93.86;97731.44;222704;1230;74074;-78
2023/12/21 13:38:52;;;;;;;4.00;3.10;;;;;;;4.76;94.04;97704.68;222471;1228;72113;-79
2023/12/21 13:43:44;;;;;;;4.20;3.00;;;;;;;4.74;94.13;97689.60;222739;1229;61280;-80
2023/12/21 13:48:36;;;;;;;3.50;2.60;;;;;;;4.73;94.04;97675.54;222850;1234;61733;-80
2023/12/21 13:53:29;;;;;;;3.10;2.80;;;;;;;4.71;94.13;97666.95;222902;1233;61228;-79
2023/12/21 13:58:21;;;;;;;3.10;2.40;;;;;;;4.68;94.21;97655.15;222770;1228;66777;-79
2023/12/21 14:03:15;;;;;;;3.10;2.90;;;;;;;4.66;94.31;97643.15;222799;1228;61334;-79
2023/12/21 14:08:07;;;;;;;4.20;3.20;;;;;;;4.64;94.23;97631.00;222747;1228;75523;-79
2023/12/21 14:13:00;;;;;;;5.80;3.20;;;;;;;4.62;94.35;97610.61;222698;1233;61184;-79
2023/12/21 14:18:11;;;;;;;4.10;3.10;;;;;;;4.59;94.19;97601.17;222464;1229;61228;-78
2023/12/21 14:37:15;;;;;;;;;;;;;;;;;;;;;
2023/12/21 14:43:48;;;;;;;5.60;3.60;;;;;;;4.51;94.45;97505.39;219019;1243;73000;-78
2023/12/21 14:56:05;;;;;;;4.60;3.30;;;;;;;4.48;94.41;97467.34;219185;1253;66647;-78
2023/12/21 15:01:10;;;;;;;4.30;3.00;;;;;;;4.47;94.43;97446.08;219316;1248;61362;-76
2023/12/21 15:06:51;;;;;;;3.70;2.60;;;;;;;4.47;94.40;97434.08;219910;1241;74181;-78
2023/12/21 15:17:46;;;;;;;7.80;3.30;;;;;;;4.44;94.58;97405.80;221417;1228;61313;-80
2023/12/21 15:22:53;;;;;;;7.50;3.30;;;;;;;4.43;94.54;97383.53;222769;1228;66405;-77
2023/12/21 15:27:46;;;;;;;7.10;4.60;;;;;;;4.40;94.52;97365.91;222707;1228;61200;-78
2023/12/21 15:32:52;;;;;;;5.70;3.20;;;;;;;4.37;94.70;97348.44;222651;1228;74173;-78
2023/12/21 15:37:48;;;;;;;6.90;3.20;;;;;;;4.34;94.56;97338.70;222414;1234;72234;-77
2023/12/21 15:42:42;;;;;;;4.20;3.60;;;;;;;4.34;94.68;97324.98;222640;1228;61286;-78
2023/12/21 15:47:43;;;;;;;4.10;3.10;;;;;;;4.34;94.61;97310.08;222765;1228;65855;-78
2023/12/21 15:52:37;;;;;;;5.40;3.10;;;;;;;4.31;94.58;97291.24;222677;1228;61253;-78
2023/12/21 15:57:32;;;;;;;3.70;3.00;;;;;;;4.29;94.62;97279.27;222632;1229;61316;-78
2023/12/21 16:02:29;;;;;;;3.20;2.60;;;;;;;4.28;94.48;97264.87;222705;1228;70275;-79
2023/12/21 16:07:45;;;;;;;3.30;2.70;;;;;;;4.26;94.50;97247.26;222749;1228;61205;-79
2023/12/21 16:13:00;;;;;;;3.30;2.40;;;;;;;4.24;94.59;97229.96;222745;1228;67859;-80
2023/12/21 16:17:53;;;;;;;3.60;2.80;;;;;;;4.19;94.21;97208.77;222649;1233;61072;-79
2023/12/21 16:22:46;;;;;;;3.00;2.50;;;;;;;4.18;94.51;97182.04;222768;1228;61222;-81
2023/12/21 16:27:40;;;;;;;3.30;2.60;;;;;;;4.15;94.51;97172.48;222737;1228;61696;-81
2023/12/21 16:32:35;;;;;;;4.30;3.10;;;;;;;4.13;94.59;97164.46;222864;1228;61331;-80
2023/12/21 16:37:26;;;;;;;3.60;3.00;;;;;;;4.13;94.47;97148.34;222772;1229;64639;-80
2023/12/21 16:42:27;;;;;;;3.60;2.40;;;;;;;4.12;94.56;97137.39;222603;1228;61376;-79
2023/12/21 16:47:26;;;;;;;3.00;2.50;;;;;;;4.09;94.29;97130.77;222751;1228;74270;-79
2023/12/21 16:57:38;;;;;;;3.20;2.40;;;;;;;4.06;94.49;97114.00;222850;1228;61193;-79
2023/12/21 17:02:48;;;;;;;3.30;2.70;;;;;;;4.06;94.51;97102.00;222749;1228;66531;-80
2023/12/21 17:07:54;;;;;;;4.90;3.40;;;;;;;4.05;94.44;97084.70;222809;1228;61220;-79
2023/12/21 17:12:58;;;;;;;3.40;2.50;;;;;;;4.06;94.61;97066.88;222772;1228;74285;-79
2023/12/21 17:28:27;;;;;;;4.40;3.10;;;;;;;4.05;94.69;97028.32;222798;1228;66296;-81
2023/12/21 17:34:00;;;;;;;3.80;3.00;;;;;;;4.06;94.71;97018.89;222805;1228;61298;-80
2023/12/21 17:40:06;;;;;;;4.70;3.10;;;;;;;4.08;94.68;97008.05;222845;1228;74367;-80
2023/12/21 17:45:33;;;;;;;5.30;3.20;;;;;;;4.09;94.78;96992.95;222616;1228;72773;-79
2023/12/21 17:50:36;;;;;;;4.10;3.20;;;;;;;4.10;94.83;96981.96;220672;1240;61333;-78
2023/12/21 17:55:59;;;;;;;4.90;3.50;;;;;;;4.13;94.89;96974.03;220563;1240;66326;-79
2023/12/21 18:01:30;;;;;;;4.40;3.20;;;;;;;4.15;94.96;96963.70;220600;1238;61309;-80
2023/12/21 18:06:33;;;;;;;3.80;3.30;;;;;;;4.18;95.06;96954.23;220438;1241;74425;-79
2023/12/21 18:11:27;;;;;;;4.10;3.20;;;;;;;4.19;95.03;96940.67;220510;1241;72852;-78
2023/12/21 18:16:37;;;;;;;4.30;3.70;;;;;;;4.20;94.97;96926.42;220498;1241;61449;-80
2023/12/21 20:06:51;;;;;;;;;;;;;;;;;;;;;
2023/12/21 20:46:09;;;;;;;3.50;2.80;;;;;;;4.83;97.00;96679.85;220676;1238;73215;-79
2023/12/21 23:45:18;;;;;;;6.70;2.10;;;;;;;4.52;93.81;96851.56;217913;1251;67389;-79
2023/12/21 23:50:27;;;;;;;3.30;1.80;;;;;;;4.47;93.94;96833.67;217900;1251;61506;-78
